createdAt,value
2023-01-08T00:00:26.066Z,100237.30
2023-01-08T00:05:50.657Z,100230.19
2023-01-08T00:10:56.612Z,100225.31
2023-01-08T00:16:04.465Z,100207.08
2023-01-08T00:21:07.786Z,100199.84
2023-01-08T00:26:12.179Z,100192.41
2023-01-08T00:31:15.243Z,100184.42
2023-01-08T00:36:19.733Z,100171.10
2023-01-08T00:41:22.451Z,100166.73
2023-01-08T00:46:25.187Z,100168.02
2023-01-08T00:51:28.052Z,100166.23
2023-01-08T00:56:30.855Z,100166.36
2023-01-08T01:01:33.887Z,100162.39
2023-01-08T01:06:36.677Z,100152.58
2023-01-08T01:11:40.087Z,100154.12
2023-01-08T01:16:43.979Z,100150.30
2023-01-08T01:21:46.749Z,100162.30
2023-01-08T01:26:49.786Z,100167.42
2023-01-08T01:31:53.130Z,100155.52
2023-01-08T01:36:55.818Z,100143.95
2023-01-08T01:41:58.597Z,100138.30
2023-01-08T01:47:04.363Z,100144.16
2023-01-08T01:52:09.272Z,100135.62
2023-01-08T01:57:12.004Z,100133.30
2023-01-08T02:02:15.025Z,100118.09
2023-01-08T02:07:33.116Z,100101.83
2023-01-08T02:12:45.030Z,100098.27
2023-01-08T02:18:14.673Z,100099.84
2023-01-08T02:23:30.462Z,100095.20
2023-01-08T02:28:41.255Z,100087.80
2023-01-08T02:33:44.176Z,100090.73
2023-01-08T02:39:28.870Z,100079.00
2023-01-08T02:44:46.701Z,100079.27
2023-01-08T02:49:55.338Z,100079.83
2023-01-08T02:55:01.622Z,100083.16
2023-01-08T03:00:05.867Z,100075.29
2023-01-08T03:05:21.606Z,100075.50
2023-01-08T03:10:28.667Z,100066.98
2023-01-08T03:15:46.375Z,100053.27
2023-01-08T03:20:51.003Z,100051.09
2023-01-08T03:25:53.854Z,100057.16
2023-01-08T03:30:58.990Z,100057.06
2023-01-08T03:36:04.893Z,100051.95
2023-01-08T03:41:11.539Z,100058.83
2023-01-08T03:46:20.829Z,100056.73
2023-01-08T03:51:23.692Z,100062.02
2023-01-08T03:56:26.405Z,100066.27
2023-01-08T04:01:29.247Z,100061.23
2023-01-08T04:06:32.153Z,100056.04
2023-01-08T04:11:35.221Z,100053.06
2023-01-08T04:16:38.569Z,100049.95
2023-01-08T04:21:41.514Z,100052.37
2023-01-08T04:26:44.584Z,100042.58
2023-01-08T04:31:47.394Z,100043.46
2023-01-08T04:36:50.183Z,100051.11
2023-01-08T04:41:52.989Z,100043.63
2023-01-08T04:46:55.795Z,100047.48
2023-01-08T04:51:58.495Z,100037.58
2023-01-08T04:57:01.234Z,100043.09
2023-01-08T05:02:04.069Z,100038.13
2023-01-08T05:07:08.064Z,100020.44
2023-01-08T05:12:10.825Z,100013.75
2023-01-08T05:17:14.139Z,100011.37
2023-01-08T05:22:16.840Z,100001.06
2023-01-08T05:27:19.612Z,99991.81
2023-01-08T05:32:22.333Z,99995.95
2023-01-08T05:37:25.027Z,99998.05
2023-01-08T05:42:28.002Z,99981.08
2023-01-08T05:47:32.173Z,99972.02
2023-01-08T05:52:34.985Z,99978.38
2023-01-08T05:57:37.751Z,99977.85
2023-01-08T06:02:40.548Z,99964.44
2023-01-08T06:07:43.383Z,99965.48
2023-01-08T06:12:46.164Z,99961.50
2023-01-08T06:17:48.978Z,99950.50
2023-01-08T06:22:54.288Z,99951.33
2023-01-08T06:27:57.561Z,99937.93
2023-01-08T06:33:01.637Z,99933.95
2023-01-08T06:38:04.369Z,99925.89
2023-01-08T06:43:07.188Z,99918.83
2023-01-08T06:48:10.008Z,99916.09
2023-01-08T06:53:12.801Z,99922.27
2023-01-08T06:58:15.567Z,99914.35
2023-01-08T07:03:19.078Z,99914.10
2023-01-08T07:08:22.119Z,99900.40
2023-01-08T07:13:25.239Z,99883.90
2023-01-08T07:18:28.553Z,99882.38
2023-01-08T07:23:31.660Z,99873.73
2023-01-08T07:28:35.868Z,99874.75
2023-01-08T07:33:38.996Z,99867.04
2023-01-08T07:38:42.985Z,99857.23
2023-01-08T07:43:48.212Z,99862.57
2023-01-08T07:48:50.987Z,99861.02
2023-01-08T07:53:56.471Z,99862.66
2023-01-08T07:58:59.310Z,99863.61
2023-01-08T08:04:02.059Z,99863.98
2023-01-08T08:09:04.851Z,99874.27
2023-01-08T08:14:07.844Z,99880.01
2023-01-08T08:19:13.067Z,99866.12
2023-01-08T08:24:16.326Z,99875.20
2023-01-08T08:29:19.258Z,99873.31
2023-01-08T08:34:22.709Z,99880.67
2023-01-08T08:39:25.414Z,99875.83
2023-01-08T08:44:28.131Z,99876.30
2023-01-08T08:49:31.574Z,99877.05
2023-01-08T08:54:34.375Z,99880.52
2023-01-08T08:59:37.105Z,99884.61
2023-01-08T09:04:39.872Z,99876.52
2023-01-08T09:09:42.687Z,99867.75
2023-01-08T09:14:45.402Z,99869.70
2023-01-08T09:19:48.479Z,99866.67
2023-01-08T09:24:51.385Z,99861.55
2023-01-08T09:29:54.185Z,99854.49
2023-01-08T09:34:57.122Z,99846.00
2023-01-08T09:40:02.411Z,99844.80
2023-01-08T09:45:06.923Z,99846.21
2023-01-08T09:50:14.288Z,99845.10
2023-01-08T09:55:17.124Z,99839.90
2023-01-08T10:00:26.166Z,99828.41
2023-01-08T10:05:29.983Z,99817.89
2023-01-08T10:10:33.330Z,99806.45
2023-01-08T10:15:36.294Z,99803.34
2023-01-08T10:20:39.509Z,99794.95
2023-01-08T10:26:03.432Z,99785.96
2023-01-08T10:31:11.206Z,99774.61
2023-01-08T10:36:17.397Z,99765.12
2023-01-08T10:41:20.408Z,99763.52
2023-01-08T10:46:31.145Z,99751.06
2023-01-08T10:51:34.413Z,99739.66
2023-01-08T10:56:44.881Z,99733.90
2023-01-08T11:01:50.368Z,99728.15
2023-01-08T11:06:59.765Z,99718.81
2023-01-08T11:12:02.587Z,99720.39
2023-01-08T11:17:13.014Z,99728.08
2023-01-08T11:22:22.453Z,99727.41
2023-01-08T11:27:31.308Z,99733.68
2023-01-08T11:32:49.179Z,99738.86
2023-01-08T11:37:51.980Z,99737.69
2023-01-08T11:43:12.490Z,99732.98
2023-01-08T11:48:47.423Z,99732.42
2023-01-08T11:54:15.526Z,99735.10
2023-01-08T11:59:24.398Z,99729.11
2023-01-08T12:04:59.720Z,99719.96
2023-01-08T12:10:27.829Z,99710.96
2023-01-08T12:15:30.554Z,99711.21
2023-01-08T12:20:38.380Z,99713.30
2023-01-08T12:26:02.754Z,99714.21
2023-01-08T12:31:33.486Z,99711.66
2023-01-08T12:37:06.014Z,99696.69
2023-01-08T12:42:16.898Z,99687.05
2023-01-08T12:47:22.786Z,99673.55
2023-01-08T12:52:38.988Z,99673.55
2023-01-08T12:57:52.044Z,99662.39
2023-01-08T13:03:06.420Z,99656.59
2023-01-08T13:08:29.686Z,99648.96
2023-01-08T13:13:36.078Z,99643.41
2023-01-08T13:18:39.187Z,99645.45
2023-01-08T13:23:41.981Z,99643.98
2023-01-08T13:28:45.876Z,99643.55
2023-01-08T13:33:52.742Z,99632.47
2023-01-08T13:39:10.981Z,99613.86
2023-01-08T13:44:34.626Z,99612.61
2023-01-08T13:49:51.425Z,99603.05
2023-01-08T13:54:54.913Z,99596.84
2023-01-08T14:00:00.271Z,99591.98
2023-01-08T14:05:37.072Z,99598.42
2023-01-08T14:10:39.885Z,99617.07
2023-01-08T14:15:43.170Z,99611.25
2023-01-08T14:20:50.005Z,99601.48
2023-01-08T14:25:53.869Z,99611.74
2023-01-08T14:30:57.475Z,99603.09
2023-01-08T14:36:02.270Z,99593.10
2023-01-08T14:41:14.722Z,99593.73
2023-01-08T14:46:28.980Z,99584.92
2023-01-08T14:51:32.410Z,99578.20
2023-01-08T14:56:36.835Z,99569.15
2023-01-08T15:01:40.122Z,99568.20
2023-01-08T15:06:43.644Z,99567.29
2023-01-08T15:11:54.466Z,99555.17
2023-01-08T15:17:00.335Z,99552.42
2023-01-08T15:22:03.184Z,99552.72
2023-01-08T15:27:10.440Z,99551.45
2023-01-08T15:32:16.200Z,99550.20
2023-01-08T15:37:18.901Z,99552.03
2023-01-08T15:42:47.604Z,99548.77
2023-01-08T15:47:50.308Z,99529.20
2023-01-08T15:52:54.132Z,99520.55
2023-01-08T15:57:56.861Z,99523.55
2023-01-08T16:03:00.571Z,99514.49
2023-01-08T16:08:04.794Z,99517.58
2023-01-08T16:13:08.693Z,99534.62
2023-01-08T16:18:12.443Z,99542.71
2023-01-08T16:23:15.208Z,99539.58
2023-01-08T16:28:17.942Z,99538.65
2023-01-08T16:33:20.608Z,99532.94
2023-01-08T16:38:25.214Z,99535.77
2023-01-08T16:43:30.298Z,99538.78
2023-01-08T16:48:33.048Z,99547.67
2023-01-08T16:53:36.873Z,99537.75
2023-01-08T16:58:39.883Z,99535.91
2023-01-08T17:03:42.701Z,99539.19
2023-01-08T17:08:46.405Z,99534.85
2023-01-08T17:13:49.724Z,99525.10
2023-01-08T17:18:52.623Z,99528.02
2023-01-08T17:23:55.450Z,99534.11
2023-01-08T17:28:58.650Z,99524.27
2023-01-08T17:34:01.433Z,99522.14
2023-01-08T17:39:04.215Z,99516.15
2023-01-08T17:44:09.816Z,99502.83
2023-01-08T17:49:15.067Z,99494.36
2023-01-08T17:54:18.066Z,99485.88
2023-01-08T17:59:21.514Z,99481.41
2023-01-08T18:04:24.288Z,99480.70
2023-01-08T18:09:27.084Z,99470.94
2023-01-08T18:14:30.312Z,99463.52
2023-01-08T18:19:33.073Z,99464.77
2023-01-08T18:24:35.899Z,99464.08
2023-01-08T18:29:38.573Z,99467.13
2023-01-08T18:34:41.308Z,99477.45
2023-01-08T18:39:44.247Z,99493.15
2023-01-08T18:44:48.364Z,99510.41
2023-01-08T18:49:55.835Z,99501.95
2023-01-08T18:54:58.560Z,99498.33
2023-01-08T19:00:03.600Z,99488.48
2023-01-08T19:05:06.915Z,99479.27
2023-01-08T19:10:11.097Z,99476.58
2023-01-08T19:15:13.951Z,99485.25
2023-01-08T19:20:17.171Z,99483.20
2023-01-08T19:25:20.410Z,99479.48
2023-01-08T19:30:23.219Z,99480.27
2023-01-08T19:35:25.992Z,99480.27
2023-01-08T19:40:28.684Z,99478.86
2023-01-08T19:45:31.540Z,99478.63
2023-01-08T19:50:38.260Z,99464.43
2023-01-08T19:55:41.308Z,99447.80
2023-01-08T20:00:44.265Z,99443.09
2023-01-08T20:05:47.053Z,99436.44
2023-01-08T20:10:50.201Z,99434.80
2023-01-08T20:15:57.473Z,99432.86
2023-01-08T20:21:12.619Z,99423.64
2023-01-08T20:26:18.572Z,99418.78
2023-01-08T20:31:23.128Z,99413.44
2023-01-08T20:36:29.094Z,99411.38
2023-01-08T20:41:32.001Z,99401.54
2023-01-08T20:46:36.246Z,99394.58
2023-01-08T20:51:46.277Z,99392.09
2023-01-08T20:56:59.226Z,99390.10
2023-01-08T21:02:02.214Z,99379.33
2023-01-08T21:07:05.140Z,99364.46
2023-01-08T21:12:08.771Z,99358.71
2023-01-08T21:17:12.183Z,99362.35
2023-01-08T21:22:14.963Z,99356.05
2023-01-08T21:27:17.895Z,99355.41
2023-01-08T21:32:20.698Z,99364.61
2023-01-08T21:37:23.375Z,99362.62
2023-01-08T21:42:44.837Z,99357.75
2023-01-08T21:47:47.533Z,99364.42
2023-01-08T21:53:09.175Z,99351.25
2023-01-08T21:58:12.681Z,99346.00
2023-01-08T22:03:15.597Z,99354.52
2023-01-08T22:08:19.441Z,99336.81
2023-01-08T22:13:22.117Z,99315.77
2023-01-08T22:18:24.828Z,99315.29
2023-01-08T22:23:27.544Z,99315.25
2023-01-08T22:28:30.735Z,99318.84
2023-01-08T22:33:34.153Z,99309.84
2023-01-08T22:38:37.589Z,99310.97
2023-01-08T22:43:40.369Z,99304.39
2023-01-08T22:48:43.996Z,99291.34
2023-01-08T22:53:46.724Z,99268.23
2023-01-08T22:58:49.807Z,99258.13
2023-01-08T23:03:54.819Z,99268.60
2023-01-08T23:08:57.869Z,99252.58
2023-01-08T23:14:00.974Z,99228.35
2023-01-08T23:19:03.872Z,99225.06
2023-01-08T23:24:11.284Z,99211.09
2023-01-08T23:29:14.883Z,99195.86
2023-01-08T23:34:17.937Z,99188.39
2023-01-08T23:39:21.472Z,99163.64
2023-01-08T23:44:24.226Z,99151.57
2023-01-08T23:49:27.031Z,99147.38
2023-01-08T23:54:29.934Z,99144.16
2023-01-08T23:59:32.927Z,99133.44
